createdAt,value
2023-04-09T00:00:44.110Z,44.10
2023-04-09T00:03:10.819Z,42.47
2023-04-09T00:05:41.265Z,43.60
2023-04-09T00:08:08.251Z,42.10
2023-04-09T00:10:35.166Z,42.87
2023-04-09T00:13:01.805Z,42.20
2023-04-09T00:15:31.502Z,41.67
2023-04-09T00:17:58.760Z,43.17
2023-04-09T00:20:25.510Z,43.67
2023-04-09T00:22:52.292Z,42.23
2023-04-09T00:25:19.814Z,40.37
2023-04-09T00:27:46.826Z,42.10
2023-04-09T00:30:13.522Z,42.10
2023-04-09T00:32:40.206Z,42.10
2023-04-09T00:35:07.152Z,41.53
2023-04-09T00:37:33.922Z,41.37
2023-04-09T00:40:00.882Z,42.30
2023-04-09T00:42:27.456Z,42.17
2023-04-09T00:44:54.085Z,40.80
2023-04-09T00:47:21.189Z,42.93
2023-04-09T00:49:47.894Z,41.30
2023-04-09T00:52:14.506Z,42.43
2023-04-09T00:54:41.251Z,41.73
2023-04-09T00:57:07.957Z,42.97
2023-04-09T00:59:34.564Z,40.67
2023-04-09T01:02:01.309Z,40.57
2023-04-09T01:04:28.074Z,40.13
2023-04-09T01:07:19.952Z,41.73
2023-04-09T01:10:21.844Z,41.70
2023-04-09T01:13:08.718Z,39.90
2023-04-09T01:15:41.306Z,40.13
2023-04-09T01:18:21.997Z,42.17
2023-04-09T01:20:58.149Z,41.03
2023-04-09T01:24:02.517Z,41.83
2023-04-09T01:26:57.046Z,41.30
2023-04-09T01:29:31.586Z,39.43
2023-04-09T01:32:00.587Z,38.17
2023-04-09T01:34:28.692Z,41.17
2023-04-09T01:36:59.370Z,40.50
2023-04-09T01:39:27.014Z,39.80
2023-04-09T01:41:54.852Z,40.37
2023-04-09T01:44:22.417Z,38.77
2023-04-09T01:46:49.926Z,37.97
2023-04-09T01:49:18.079Z,38.23
2023-04-09T01:51:44.871Z,37.13
2023-04-09T01:54:11.520Z,38.50
2023-04-09T01:56:46.227Z,37.40
2023-04-09T01:59:13.823Z,35.97
2023-04-09T02:01:58.192Z,38.93
2023-04-09T02:04:32.786Z,39.63
2023-04-09T02:07:06.137Z,39.10
2023-04-09T02:09:36.310Z,41.10
2023-04-09T02:12:06.117Z,41.40
2023-04-09T02:14:34.052Z,42.23
2023-04-09T02:17:01.661Z,44.43
2023-04-09T02:19:46.379Z,43.37
2023-04-09T02:22:15.650Z,41.73
2023-04-09T02:24:43.266Z,42.13
2023-04-09T02:27:10.479Z,41.03
2023-04-09T02:29:40.273Z,41.77
2023-04-09T02:32:07.367Z,41.37
2023-04-09T02:34:34.254Z,40.37
2023-04-09T02:37:00.934Z,41.13
2023-04-09T02:39:27.535Z,42.73
2023-04-09T02:41:54.162Z,41.00
2023-04-09T02:44:20.768Z,42.10
2023-04-09T02:46:49.195Z,40.87
2023-04-09T02:49:16.394Z,41.43
2023-04-09T02:51:43.070Z,42.27
2023-04-09T02:54:09.762Z,43.33
2023-04-09T02:56:36.458Z,40.50
2023-04-09T02:59:03.040Z,41.60
2023-04-09T03:01:29.814Z,42.23
2023-04-09T03:03:56.573Z,44.13
2023-04-09T03:06:23.258Z,42.87
2023-04-09T03:08:50.136Z,42.03
2023-04-09T03:11:17.054Z,41.70
2023-04-09T03:13:43.917Z,41.47
2023-04-09T03:16:10.751Z,40.60
2023-04-09T03:18:37.520Z,41.57
2023-04-09T03:21:08.168Z,42.27
2023-04-09T03:23:37.396Z,42.77
2023-04-09T03:26:06.369Z,44.73
2023-04-09T03:28:45.456Z,44.43
2023-04-09T03:31:13.889Z,47.30
2023-04-09T03:33:42.245Z,45.57
2023-04-09T03:36:09.588Z,45.30
2023-04-09T03:39:02.516Z,44.53
2023-04-09T03:41:38.273Z,45.10
2023-04-09T03:44:09.819Z,44.47
2023-04-09T03:46:47.364Z,43.87
2023-04-09T03:49:17.583Z,42.70
2023-04-09T03:51:45.068Z,42.47
2023-04-09T03:54:12.348Z,43.47
2023-04-09T03:56:40.287Z,43.90
2023-04-09T03:59:10.410Z,43.20
2023-04-09T04:01:40.260Z,42.93
2023-04-09T04:04:07.150Z,44.53
2023-04-09T04:06:38.146Z,43.37
2023-04-09T04:09:25.329Z,43.40
2023-04-09T04:11:58.731Z,42.33
2023-04-09T04:14:37.009Z,43.10
2023-04-09T04:17:13.612Z,43.00
2023-04-09T04:19:40.417Z,41.77
2023-04-09T04:22:07.055Z,41.20
2023-04-09T04:24:38.095Z,42.17
2023-04-09T04:27:05.187Z,41.40
2023-04-09T04:29:34.638Z,41.67
2023-04-09T04:32:03.652Z,39.67
2023-04-09T04:34:35.847Z,38.40
2023-04-09T04:37:10.085Z,39.07
2023-04-09T04:39:36.841Z,39.47
2023-04-09T04:42:09.064Z,41.33
2023-04-09T04:44:35.942Z,39.80
2023-04-09T04:47:13.158Z,41.20
2023-04-09T04:49:40.145Z,41.13
2023-04-09T04:52:08.248Z,42.90
2023-04-09T04:54:36.762Z,41.87
2023-04-09T04:57:03.594Z,42.37
2023-04-09T04:59:39.718Z,39.87
2023-04-09T05:02:08.761Z,39.60
2023-04-09T05:04:49.433Z,39.80
2023-04-09T05:07:18.653Z,40.10
2023-04-09T05:09:50.793Z,38.70
2023-04-09T05:12:18.018Z,37.67
2023-04-09T05:14:48.840Z,40.63
2023-04-09T05:17:15.524Z,39.90
2023-04-09T05:19:44.465Z,38.50
2023-04-09T05:22:12.788Z,39.43
2023-04-09T05:24:39.390Z,39.07
2023-04-09T05:27:06.401Z,40.10
2023-04-09T05:29:33.099Z,40.20
2023-04-09T05:32:00.720Z,40.97
2023-04-09T05:34:32.206Z,40.10
2023-04-09T05:36:59.382Z,41.47
2023-04-09T05:39:26.645Z,41.53
2023-04-09T05:41:53.271Z,44.13
2023-04-09T05:44:30.224Z,46.17
2023-04-09T05:47:05.734Z,43.73
2023-04-09T05:49:40.608Z,46.03
2023-04-09T05:52:11.650Z,47.20
2023-04-09T05:54:38.344Z,47.93
2023-04-09T05:57:07.892Z,47.20
2023-04-09T05:59:37.579Z,47.70
2023-04-09T06:02:04.432Z,45.27
2023-04-09T06:04:33.155Z,46.63
2023-04-09T06:07:00.504Z,43.97
2023-04-09T06:09:27.886Z,44.70
2023-04-09T06:11:54.552Z,44.60
2023-04-09T06:14:21.166Z,44.20
2023-04-09T06:16:47.744Z,43.50
2023-04-09T06:19:16.460Z,43.27
2023-04-09T06:21:43.213Z,42.47
2023-04-09T06:24:10.064Z,41.67
2023-04-09T06:26:36.680Z,41.07
2023-04-09T06:29:03.369Z,41.53
2023-04-09T06:31:30.068Z,40.13
2023-04-09T06:33:56.877Z,39.37
2023-04-09T06:36:23.497Z,40.83
2023-04-09T06:38:50.153Z,40.87
2023-04-09T06:41:16.721Z,41.67
2023-04-09T06:43:43.330Z,42.83
2023-04-09T06:46:09.974Z,41.47
2023-04-09T06:48:36.608Z,41.63
2023-04-09T06:51:03.378Z,42.30
2023-04-09T06:53:30.222Z,43.03
2023-04-09T06:55:57.284Z,43.00
2023-04-09T06:58:24.047Z,42.50
2023-04-09T07:00:50.646Z,41.83
2023-04-09T07:03:17.442Z,40.03
2023-04-09T07:05:44.263Z,40.33
2023-04-09T07:08:11.591Z,37.93
2023-04-09T07:10:38.237Z,37.47
2023-04-09T07:13:04.810Z,36.23
2023-04-09T07:15:31.460Z,37.70
2023-04-09T07:17:58.159Z,36.23
2023-04-09T07:20:24.798Z,37.10
2023-04-09T07:22:51.464Z,38.30
2023-04-09T07:25:18.140Z,37.17
2023-04-09T07:27:44.759Z,37.07
2023-04-09T07:30:11.455Z,36.60
2023-04-09T07:32:38.328Z,35.57
2023-04-09T07:35:07.883Z,36.60
2023-04-09T07:37:34.476Z,37.07
2023-04-09T07:40:01.575Z,35.23
2023-04-09T07:42:28.282Z,34.10
2023-04-09T07:44:55.082Z,33.10
2023-04-09T07:47:22.858Z,35.70
2023-04-09T07:49:49.770Z,35.07
2023-04-09T07:52:16.413Z,34.67
2023-04-09T07:54:42.983Z,34.60
2023-04-09T07:57:09.573Z,33.23
2023-04-09T07:59:36.354Z,31.50
2023-04-09T08:02:03.499Z,31.77
2023-04-09T08:04:30.601Z,32.60
2023-04-09T08:06:57.248Z,32.37
2023-04-09T08:09:23.853Z,32.87
2023-04-09T08:11:50.510Z,32.43
2023-04-09T08:14:18.018Z,30.90
2023-04-09T08:16:46.888Z,31.33
2023-04-09T08:19:15.743Z,31.27
2023-04-09T08:21:43.353Z,29.30
2023-04-09T08:24:11.674Z,28.40
2023-04-09T08:26:39.519Z,27.73
2023-04-09T08:29:06.383Z,29.80
2023-04-09T08:31:33.413Z,28.30
2023-04-09T08:34:00.440Z,24.83
2023-04-09T08:36:27.622Z,24.10
2023-04-09T08:38:56.013Z,23.17
2023-04-09T08:41:29.358Z,26.73
2023-04-09T08:43:59.158Z,26.23
2023-04-09T08:46:27.033Z,23.57
2023-04-09T08:48:54.364Z,24.00
2023-04-09T08:51:24.008Z,23.97
2023-04-09T08:53:57.787Z,23.00
2023-04-09T08:56:25.990Z,22.87
2023-04-09T08:58:53.386Z,24.67
2023-04-09T09:01:31.038Z,23.60
2023-04-09T09:04:04.118Z,20.03
2023-04-09T09:06:33.703Z,22.20
2023-04-09T09:09:05.423Z,21.17
2023-04-09T09:11:33.498Z,20.37
2023-04-09T09:14:02.144Z,21.17
2023-04-09T09:16:29.130Z,21.30
2023-04-09T09:18:56.965Z,20.13
2023-04-09T09:21:26.163Z,20.90
2023-04-09T09:23:53.297Z,20.73
2023-04-09T09:26:23.028Z,21.83
2023-04-09T09:28:50.251Z,21.00
2023-04-09T09:31:19.731Z,19.73
2023-04-09T09:33:47.189Z,20.83
2023-04-09T09:36:15.877Z,19.80
2023-04-09T09:38:57.007Z,19.80
2023-04-09T09:41:24.783Z,19.27
2023-04-09T09:43:51.878Z,20.37
2023-04-09T09:46:18.868Z,20.80
2023-04-09T09:48:49.601Z,19.87
2023-04-09T09:51:16.665Z,20.20
2023-04-09T09:53:46.620Z,20.73
2023-04-09T09:56:16.775Z,21.30
2023-04-09T09:58:57.567Z,20.97
2023-04-09T10:01:27.877Z,21.07
2023-04-09T10:03:56.901Z,20.00
2023-04-09T10:06:24.104Z,19.13
2023-04-09T10:08:52.434Z,19.27
2023-04-09T10:11:20.324Z,19.50
2023-04-09T10:13:51.521Z,19.53
2023-04-09T10:16:19.089Z,19.83
2023-04-09T10:18:45.940Z,17.97
2023-04-09T10:21:37.713Z,19.40
2023-04-09T10:24:07.698Z,18.80
2023-04-09T10:26:36.255Z,19.43
2023-04-09T10:29:06.926Z,18.77
2023-04-09T10:31:54.921Z,18.47
2023-04-09T10:34:28.120Z,18.30
2023-04-09T10:36:59.705Z,18.53
2023-04-09T10:39:32.119Z,18.43
2023-04-09T10:42:07.519Z,18.67
2023-04-09T10:44:35.957Z,19.40
2023-04-09T10:47:03.802Z,20.70
2023-04-09T10:49:40.176Z,19.27
2023-04-09T10:52:12.003Z,19.20
2023-04-09T10:54:43.766Z,18.43
2023-04-09T10:57:15.491Z,18.30
2023-04-09T10:59:46.391Z,18.87
2023-04-09T11:02:35.951Z,19.53
2023-04-09T11:05:07.546Z,19.53
2023-04-09T11:07:40.326Z,19.50
2023-04-09T11:10:07.693Z,18.30
2023-04-09T11:12:34.288Z,19.63
2023-04-09T11:15:00.918Z,20.20
2023-04-09T11:17:27.856Z,19.70
2023-04-09T11:19:55.554Z,18.93
2023-04-09T11:22:22.275Z,19.60
2023-04-09T11:24:50.762Z,20.40
2023-04-09T11:27:21.599Z,19.93
2023-04-09T11:29:48.192Z,18.20
2023-04-09T11:32:14.833Z,19.63
2023-04-09T11:34:41.417Z,19.57
2023-04-09T11:37:16.682Z,18.80
2023-04-09T11:39:46.637Z,18.97
2023-04-09T11:42:16.013Z,18.00
2023-04-09T11:44:45.196Z,18.10
2023-04-09T11:47:13.516Z,19.27
2023-04-09T11:49:41.008Z,18.53
2023-04-09T11:52:07.761Z,18.47
2023-04-09T11:54:34.706Z,18.67
2023-04-09T11:57:03.752Z,18.93
2023-04-09T11:59:30.787Z,18.73
2023-04-09T12:02:01.471Z,19.00
2023-04-09T12:04:28.142Z,18.80
2023-04-09T12:07:00.745Z,18.90
2023-04-09T12:09:27.453Z,18.60
2023-04-09T12:11:54.038Z,18.97
2023-04-09T12:14:22.103Z,18.43
2023-04-09T12:16:52.562Z,18.37
2023-04-09T12:19:21.032Z,17.43
2023-04-09T12:21:50.606Z,17.10
2023-04-09T12:24:18.098Z,16.37
2023-04-09T12:26:46.038Z,17.30
2023-04-09T12:29:17.994Z,17.00
2023-04-09T12:31:45.635Z,17.40
2023-04-09T12:34:13.196Z,17.17
2023-04-09T12:36:43.901Z,17.17
2023-04-09T12:39:10.560Z,17.20
2023-04-09T12:41:37.341Z,17.37
2023-04-09T12:44:05.009Z,18.73
2023-04-09T12:46:32.381Z,16.33
2023-04-09T12:48:59.353Z,17.83
2023-04-09T12:51:25.996Z,17.90
2023-04-09T12:53:52.915Z,18.27
2023-04-09T12:56:20.180Z,16.97
2023-04-09T12:58:46.759Z,17.67
2023-04-09T13:01:13.495Z,18.10
2023-04-09T13:03:41.453Z,17.87
2023-04-09T13:06:09.171Z,17.43
2023-04-09T13:08:35.868Z,15.50
2023-04-09T13:11:02.873Z,16.00
2023-04-09T13:13:29.625Z,16.43
2023-04-09T13:15:56.241Z,16.30
2023-04-09T13:18:22.825Z,17.13
2023-04-09T13:20:49.422Z,16.63
2023-04-09T13:23:16.150Z,16.87
2023-04-09T13:25:42.800Z,16.33
2023-04-09T13:28:09.808Z,16.47
2023-04-09T13:30:36.456Z,16.90
2023-04-09T13:33:03.202Z,16.87
2023-04-09T13:35:30.620Z,15.93
2023-04-09T13:37:57.245Z,16.87
2023-04-09T13:40:24.099Z,16.67
2023-04-09T13:42:50.671Z,16.57
2023-04-09T13:45:17.963Z,16.37
2023-04-09T13:47:44.560Z,16.43
2023-04-09T13:50:12.998Z,18.40
2023-04-09T13:52:39.596Z,16.33
2023-04-09T13:55:07.494Z,10.20
2023-04-09T13:57:34.116Z,16.30
2023-04-09T14:00:04.188Z,17.27
2023-04-09T14:02:32.202Z,16.57
2023-04-09T14:04:59.339Z,15.93
2023-04-09T14:07:26.412Z,16.17
2023-04-09T14:09:52.990Z,15.67
2023-04-09T14:12:19.574Z,18.00
2023-04-09T14:14:46.208Z,17.17
2023-04-09T14:17:12.818Z,17.73
2023-04-09T14:19:39.549Z,15.67
2023-04-09T14:22:08.680Z,12.37
2023-04-09T14:24:39.641Z,15.80
2023-04-09T14:27:07.624Z,16.43
2023-04-09T14:29:34.450Z,16.37
2023-04-09T14:32:01.419Z,17.00
2023-04-09T14:34:33.289Z,16.50
2023-04-09T14:36:59.901Z,14.90
2023-04-09T14:39:26.483Z,14.63
2023-04-09T14:41:54.347Z,15.00
2023-04-09T14:44:21.082Z,15.37
2023-04-09T14:46:47.700Z,16.73
2023-04-09T14:49:14.287Z,14.47
2023-04-09T14:51:40.916Z,15.97
2023-04-09T14:54:07.744Z,7.63
2023-04-09T14:56:34.330Z,14.77
2023-04-09T14:59:01.021Z,12.57
2023-04-09T15:01:28.093Z,17.47
2023-04-09T15:03:55.111Z,16.80
2023-04-09T15:06:22.202Z,14.50
2023-04-09T15:08:48.768Z,7.63
2023-04-09T15:11:16.386Z,11.87
2023-04-09T15:13:43.243Z,17.23
2023-04-09T15:16:10.239Z,6.03
2023-04-09T15:18:37.391Z,10.47
2023-04-09T15:21:04.173Z,7.03
2023-04-09T15:23:31.013Z,16.37
2023-04-09T15:25:57.634Z,16.33
2023-04-09T15:28:24.265Z,16.13
2023-04-09T15:30:51.031Z,14.63
2023-04-09T15:33:17.638Z,16.53
2023-04-09T15:35:44.267Z,15.10
2023-04-09T15:38:10.915Z,16.57
2023-04-09T15:40:39.518Z,15.33
2023-04-09T15:43:06.101Z,16.97
2023-04-09T15:45:32.711Z,17.53
2023-04-09T15:47:59.376Z,16.73
2023-04-09T15:50:26.045Z,16.00
2023-04-09T15:52:52.942Z,15.40
2023-04-09T15:55:19.618Z,16.93
2023-04-09T15:57:46.822Z,16.50
2023-04-09T16:00:13.927Z,15.03
2023-04-09T16:02:40.786Z,15.77
2023-04-09T16:05:07.837Z,11.53
2023-04-09T16:07:34.602Z,17.20
2023-04-09T16:10:01.896Z,15.87
2023-04-09T16:12:28.522Z,15.67
2023-04-09T16:14:55.124Z,15.43
2023-04-09T16:17:21.864Z,14.90
2023-04-09T16:19:48.510Z,9.53
2023-04-09T16:22:15.095Z,15.37
2023-04-09T16:24:42.865Z,17.00
2023-04-09T16:27:09.453Z,16.93
2023-04-09T16:29:36.035Z,16.13
2023-04-09T16:32:03.898Z,17.13
2023-04-09T16:34:31.892Z,16.93
2023-04-09T16:36:58.473Z,11.97
2023-04-09T16:39:25.321Z,19.00
2023-04-09T16:41:52.214Z,20.17
2023-04-09T16:44:18.838Z,20.83
2023-04-09T16:46:45.552Z,21.00
2023-04-09T16:49:12.339Z,20.83
2023-04-09T16:51:38.952Z,21.30
2023-04-09T16:54:05.624Z,11.87
2023-04-09T16:56:32.248Z,20.20
2023-04-09T16:58:58.920Z,20.03
2023-04-09T17:01:26.288Z,11.53
2023-04-09T17:03:53.144Z,21.63
2023-04-09T17:06:19.873Z,19.03
2023-04-09T17:08:46.462Z,18.23
2023-04-09T17:11:17.041Z,21.43
2023-04-09T17:13:43.689Z,21.37
2023-04-09T17:16:13.070Z,20.67
2023-04-09T17:18:39.686Z,7.17
2023-04-09T17:21:06.757Z,21.17
2023-04-09T17:23:33.493Z,21.07
2023-04-09T17:26:00.291Z,20.33
2023-04-09T17:28:26.912Z,20.67
2023-04-09T17:30:53.565Z,21.63
2023-04-09T17:33:20.183Z,20.67
2023-04-09T17:35:46.795Z,20.70
2023-04-09T17:38:20.326Z,21.67
2023-04-09T17:40:47.844Z,7.07
2023-04-09T17:43:14.416Z,20.70
2023-04-09T17:45:42.303Z,21.77
2023-04-09T17:48:08.993Z,21.77
2023-04-09T17:50:38.518Z,21.57
2023-04-09T17:53:05.103Z,22.13
2023-04-09T17:55:31.872Z,21.33
2023-04-09T17:57:58.461Z,21.00
2023-04-09T18:00:25.274Z,21.33
2023-04-09T18:02:52.932Z,22.30
2023-04-09T18:05:19.949Z,21.53
2023-04-09T18:07:46.897Z,22.60
2023-04-09T18:10:13.539Z,22.33
2023-04-09T18:12:40.197Z,22.37
2023-04-09T18:15:07.490Z,21.17
2023-04-09T18:17:34.155Z,21.63
2023-04-09T18:20:01.280Z,21.57
2023-04-09T18:22:27.950Z,22.73
2023-04-09T18:24:54.694Z,22.67
2023-04-09T18:27:21.521Z,21.23
2023-04-09T18:29:49.313Z,23.10
2023-04-09T18:32:16.900Z,22.90
2023-04-09T18:34:45.019Z,23.77
2023-04-09T18:37:12.086Z,23.90
2023-04-09T18:39:38.700Z,23.67
2023-04-09T18:42:05.388Z,22.23
2023-04-09T18:44:36.046Z,22.13
2023-04-09T18:47:06.573Z,22.00
2023-04-09T18:49:33.440Z,22.27
2023-04-09T18:52:00.732Z,23.40
2023-04-09T18:54:27.923Z,22.17
2023-04-09T18:56:54.859Z,21.07
2023-04-09T18:59:21.875Z,23.63
2023-04-09T19:01:48.721Z,21.00
2023-04-09T19:04:15.589Z,22.67
2023-04-09T19:06:46.020Z,24.67
2023-04-09T19:09:12.666Z,22.37
2023-04-09T19:11:39.254Z,22.90
2023-04-09T19:14:05.839Z,22.90
2023-04-09T19:16:32.675Z,22.60
2023-04-09T19:18:59.281Z,21.70
2023-04-09T19:21:26.002Z,22.80
2023-04-09T19:23:52.598Z,21.37
2023-04-09T19:26:19.298Z,22.40
2023-04-09T19:28:46.771Z,22.50
2023-04-09T19:31:14.463Z,22.00
2023-04-09T19:33:41.524Z,22.40
2023-04-09T19:36:08.242Z,24.13
2023-04-09T19:38:35.298Z,22.53
2023-04-09T19:41:01.915Z,22.83
2023-04-09T19:43:28.570Z,23.37
2023-04-09T19:45:56.220Z,21.67
2023-04-09T19:48:23.611Z,22.27
2023-04-09T19:50:50.406Z,22.37
2023-04-09T19:53:17.093Z,22.13
2023-04-09T19:55:44.541Z,22.90
2023-04-09T19:58:11.209Z,21.70
2023-04-09T20:00:37.856Z,22.63
2023-04-09T20:03:06.910Z,21.63
2023-04-09T20:05:33.912Z,21.57
2023-04-09T20:08:00.578Z,22.43
2023-04-09T20:10:27.277Z,22.63
2023-04-09T20:12:54.089Z,21.10
2023-04-09T20:15:21.118Z,20.80
2023-04-09T20:17:48.689Z,20.00
2023-04-09T20:20:19.583Z,21.27
2023-04-09T20:22:55.738Z,20.83
2023-04-09T20:25:23.766Z,20.77
2023-04-09T20:27:52.759Z,20.07
2023-04-09T20:30:19.719Z,19.87
2023-04-09T20:32:47.404Z,20.07
2023-04-09T20:35:14.505Z,19.17
2023-04-09T20:37:41.288Z,19.10
2023-04-09T20:40:08.359Z,18.40
2023-04-09T20:42:35.355Z,19.77
2023-04-09T20:45:02.191Z,18.60
2023-04-09T20:47:29.069Z,18.60
2023-04-09T20:49:59.634Z,18.30
2023-04-09T20:52:29.387Z,18.97
2023-04-09T20:54:59.066Z,17.93
2023-04-09T20:57:25.785Z,18.57
2023-04-09T20:59:55.084Z,18.27
2023-04-09T21:02:21.876Z,17.93
2023-04-09T21:04:48.619Z,18.03
2023-04-09T21:07:15.625Z,18.33
2023-04-09T21:09:42.268Z,18.30
2023-04-09T21:12:08.854Z,17.60
2023-04-09T21:14:35.576Z,18.97
2023-04-09T21:17:02.295Z,17.83
2023-04-09T21:19:28.925Z,18.00
2023-04-09T21:21:55.524Z,18.37
2023-04-09T21:24:23.141Z,18.57
2023-04-09T21:26:52.119Z,17.33
2023-04-09T21:29:22.104Z,18.00
2023-04-09T21:31:49.276Z,17.57
2023-04-09T21:34:16.233Z,18.03
2023-04-09T21:36:44.687Z,17.93
2023-04-09T21:39:11.496Z,17.83
2023-04-09T21:41:38.765Z,17.57
2023-04-09T21:44:08.157Z,16.33
2023-04-09T21:46:40.253Z,18.20
2023-04-09T21:49:07.102Z,18.37
2023-04-09T21:51:33.720Z,18.13
2023-04-09T21:54:08.735Z,18.27
2023-04-09T21:56:36.051Z,18.77
2023-04-09T21:59:03.061Z,17.43
2023-04-09T22:01:34.823Z,18.17
2023-04-09T22:04:02.105Z,17.27
2023-04-09T22:06:29.514Z,18.33
2023-04-09T22:08:57.732Z,17.47
2023-04-09T22:11:28.869Z,17.93
2023-04-09T22:13:57.077Z,16.83
2023-04-09T22:16:24.693Z,18.17
2023-04-09T22:18:53.971Z,18.00
2023-04-09T22:21:21.380Z,19.20
2023-04-09T22:23:48.110Z,17.87
2023-04-09T22:26:14.717Z,20.00
2023-04-09T22:28:41.328Z,17.67
2023-04-09T22:31:08.114Z,18.53
2023-04-09T22:33:34.818Z,18.67
2023-04-09T22:36:01.683Z,18.40
2023-04-09T22:38:29.529Z,18.53
2023-04-09T22:40:56.359Z,18.10
2023-04-09T22:43:23.146Z,19.37
2023-04-09T22:45:54.193Z,17.50
2023-04-09T22:48:21.971Z,17.57
2023-04-09T22:50:49.418Z,18.93
2023-04-09T22:53:19.687Z,18.13
2023-04-09T22:55:51.460Z,17.80
2023-04-09T22:58:18.704Z,18.47
2023-04-09T23:00:46.945Z,18.27
2023-04-09T23:03:13.749Z,18.80
2023-04-09T23:05:40.730Z,17.53
2023-04-09T23:08:07.314Z,18.97
2023-04-09T23:10:34.301Z,18.83
2023-04-09T23:13:01.132Z,18.17
2023-04-09T23:15:28.429Z,19.43
2023-04-09T23:17:55.502Z,18.50
2023-04-09T23:20:22.401Z,18.77
2023-04-09T23:22:49.353Z,19.00
2023-04-09T23:25:16.433Z,18.93
2023-04-09T23:27:43.704Z,18.97
2023-04-09T23:30:11.521Z,19.70
2023-04-09T23:32:38.194Z,19.83
2023-04-09T23:35:05.410Z,18.27
2023-04-09T23:37:32.076Z,19.20
2023-04-09T23:39:58.680Z,19.33
2023-04-09T23:42:29.694Z,19.20
2023-04-09T23:44:56.296Z,19.67
2023-04-09T23:47:22.957Z,19.30
2023-04-09T23:49:49.802Z,20.17
2023-04-09T23:52:16.378Z,19.67
2023-04-09T23:54:50.068Z,19.40
2023-04-09T23:57:17.585Z,18.83
2023-04-09T23:59:44.175Z,19.33
